Time;durP1;ratioP1;P1;durP2;ratioP2;P2;SDS_P1;SDS_P2;PMS_P1;PMS_P2;Temp;Humidity;BMP_temperature;BMP_pressure;BME280_temperature;BME280_humidity;BME280_pressure;Samples;Min_cycle;Max_cycle;Signal;HPM_P1;HPM_P2
2021/12/27 17:01:27;;;;;;;9.32;3.00;;;;;;;18.42;64.94;99581.72;5069418;28;20398;-83
2021/12/27 17:03:54;;;;;;;14.50;3.20;;;;;;;18.54;64.80;99580.88;5069365;28;20032;-80
2021/12/27 17:06:20;;;;;;;10.95;2.78;;;;;;;18.75;64.67;99580.34;5068740;28;20019;-79
2021/12/27 17:08:45;;;;;;;10.77;3.00;;;;;;;18.87;64.31;99579.47;5068912;28;20447;-86
2021/12/27 17:11:10;;;;;;;10.17;2.80;;;;;;;19.01;63.98;99578.53;5069382;28;20532;-76
2021/12/27 17:13:35;;;;;;;12.03;2.90;;;;;;;19.07;64.13;99578.09;5069300;28;20021;-77
2021/12/27 17:16:01;;;;;;;7.87;2.70;;;;;;;19.13;63.76;99582.09;5069784;28;20070;-77
2021/12/27 17:18:26;;;;;;;8.23;2.37;;;;;;;19.19;63.70;99583.44;5070070;28;20495;-77
2021/12/27 17:20:52;;;;;;;11.67;2.50;;;;;;;19.23;63.78;99588.38;5068887;28;20036;-75
2021/12/27 17:23:19;;;;;;;8.63;2.50;;;;;;;19.26;63.34;99572.34;5069931;28;20032;-75
2021/12/27 17:25:45;;;;;;;10.30;2.63;;;;;;;19.31;63.20;99579.06;5068866;28;20064;-74
2021/12/27 17:28:12;;;;;;;8.45;2.63;;;;;;;19.34;62.96;99581.50;5069098;28;20037;-77
2021/12/27 17:30:39;;;;;;;7.80;2.30;;;;;;;19.36;63.11;99585.69;5069401;28;20061;-77
2021/12/27 17:33:05;;;;;;;10.07;2.53;;;;;;;19.37;63.01;99583.88;5069723;28;20078;-75
2021/12/27 17:35:31;;;;;;;9.50;2.55;;;;;;;19.39;62.91;99588.09;5068614;28;20111;-74
2021/12/27 17:37:56;;;;;;;7.50;2.55;;;;;;;19.40;62.92;99581.03;5069237;28;20020;-75
2021/12/27 17:40:22;;;;;;;13.53;2.57;;;;;;;19.42;62.61;99582.59;5068900;28;20029;-77
2021/12/27 17:42:49;;;;;;;7.53;2.43;;;;;;;19.43;62.59;99586.06;5068187;28;20121;-77
2021/12/27 17:45:15;;;;;;;9.05;2.50;;;;;;;19.43;62.66;99583.44;5069451;28;20286;-78
2021/12/27 17:47:43;;;;;;;8.75;2.67;;;;;;;19.43;62.30;99581.63;5069131;28;20031;-78
2021/12/27 17:50:08;;;;;;;6.95;2.45;;;;;;;19.44;62.47;99572.81;5067431;28;20035;-78
2021/12/27 17:52:33;;;;;;;8.87;2.40;;;;;;;19.45;62.48;99576.28;5068905;28;20024;-79
2021/12/27 17:54:59;;;;;;;10.43;2.60;;;;;;;19.45;62.13;99569.22;5068334;28;20028;-79
2021/12/27 17:57:24;;;;;;;9.57;2.50;;;;;;;19.47;62.18;99565.66;5069213;28;20041;-78
2021/12/27 17:59:49;;;;;;;6.40;2.20;;;;;;;19.47;62.17;99557.75;5069025;28;20045;-78
2021/12/27 18:02:15;;;;;;;12.47;2.53;;;;;;;19.47;62.07;99568.28;5070813;28;20388;-81
2021/12/27 18:04:40;;;;;;;5.47;2.20;;;;;;;19.48;62.09;99577.84;5068384;28;20016;-79
2021/12/27 18:07:05;;;;;;;6.20;2.20;;;;;;;19.48;61.95;99569.97;5068917;28;20031;-79
2021/12/27 18:09:31;;;;;;;5.30;2.33;;;;;;;19.47;62.03;99573.53;5068556;28;20495;-79
2021/12/27 18:11:57;;;;;;;6.25;2.20;;;;;;;19.46;62.13;99567.44;5059821;28;20024;-79
2021/12/27 18:14:22;;;;;;;6.70;2.20;;;;;;;19.47;61.76;99568.28;5056061;28;20034;-77
2021/12/27 18:16:50;;;;;;;4.43;2.10;;;;;;;19.48;61.80;99564.69;5055288;28;20017;-76
2021/12/27 18:19:16;;;;;;;7.53;2.17;;;;;;;19.47;62.13;99557.75;5055750;28;20381;-79
2021/12/27 18:21:41;;;;;;;8.57;2.30;;;;;;;19.48;61.83;99565.53;5055004;28;20021;-76
2021/12/27 18:24:08;;;;;;;5.03;2.20;;;;;;;19.47;61.91;99569.13;5053666;28;20487;-77
2021/12/27 18:26:37;;;;;;;7.25;2.25;;;;;;;19.46;61.79;99562.19;5055049;28;20075;-78
2021/12/27 18:29:03;;;;;;;5.10;1.92;;;;;;;19.47;61.86;99557.75;5055155;28;20385;-76
2021/12/27 18:31:32;;;;;;;4.80;2.20;;;;;;;19.47;61.80;99555.97;5054432;28;20029;-77
2021/12/27 18:33:58;;;;;;;6.15;2.00;;;;;;;19.47;61.88;99563.00;5054922;28;20034;-75
2021/12/27 18:36:23;;;;;;;5.30;1.95;;;;;;;19.48;61.70;99562.06;5055055;28;20503;-77
2021/12/27 18:38:49;;;;;;;2.40;1.80;;;;;;;19.48;61.65;99565.53;5053793;28;20029;-76
2021/12/27 18:41:14;;;;;;;4.43;1.90;;;;;;;19.47;61.60;99563.88;5055164;28;20037;-77
2021/12/27 18:43:40;;;;;;;4.77;2.13;;;;;;;19.48;62.02;99556.81;5054915;28;20029;-78
2021/12/27 18:46:06;;;;;;;4.53;1.95;;;;;;;19.47;61.75;99557.75;5054103;28;20032;-76
2021/12/27 18:48:32;;;;;;;6.10;2.10;;;;;;;19.49;61.66;99561.13;5055136;28;20021;-78
2021/12/27 18:50:57;;;;;;;6.20;2.10;;;;;;;19.48;61.83;99557.63;5054556;28;20032;-76
2021/12/27 18:53:23;;;;;;;3.90;2.07;;;;;;;19.47;61.72;99553.34;5053247;28;20033;-76
2021/12/27 18:55:53;;;;;;;5.83;2.10;;;;;;;19.47;61.73;99550.72;5054656;28;20038;-77
2021/12/27 18:58:18;;;;;;;5.32;2.13;;;;;;;19.48;61.68;99556.81;5035207;28;20092;-76
2021/12/27 19:00:44;;;;;;;3.63;1.90;;;;;;;19.48;61.79;99554.16;5040188;28;20540;-76
2021/12/27 19:03:12;;;;;;;2.77;1.77;;;;;;;19.48;61.67;99559.44;5054860;28;20028;-77
2021/12/27 19:05:38;;;;;;;8.43;2.30;;;;;;;19.48;61.49;99555.00;5054442;28;20036;-76
2021/12/27 19:08:03;;;;;;;7.38;2.28;;;;;;;19.50;62.61;99550.47;5053420;28;20381;-76
2021/12/27 19:10:29;;;;;;;10.40;2.47;;;;;;;19.53;62.95;99538.91;5054797;28;20024;-77
2021/12/27 19:12:54;;;;;;;7.50;2.07;;;;;;;19.53;63.01;99546.78;5054023;28;20040;-75
2021/12/27 19:15:20;;;;;;;6.20;2.20;;;;;;;19.53;62.74;99547.63;5053783;28;20032;-76
2021/12/27 19:17:46;;;;;;;5.53;2.00;;;;;;;19.53;62.76;99544.97;5054199;28;20542;-75
2021/12/27 19:20:13;;;;;;;4.97;2.00;;;;;;;19.52;62.38;99535.41;5053360;28;20052;-76
2021/12/27 19:22:40;;;;;;;7.07;2.17;;;;;;;19.52;62.57;99538.03;5052681;28;20029;-76
2021/12/27 19:25:07;;;;;;;7.88;2.10;;;;;;;19.54;62.42;99540.53;5054097;28;20021;-76
2021/12/27 19:27:32;;;;;;;6.07;2.08;;;;;;;19.51;62.38;99541.63;5052937;28;20037;-75
2021/12/27 19:29:57;;;;;;;4.67;1.77;;;;;;;19.53;62.35;99536.25;5054008;28;20458;-74
2021/12/27 19:32:23;;;;;;;5.07;1.90;;;;;;;19.53;62.13;99539.72;5054108;28;20056;-76
2021/12/27 19:34:48;;;;;;;8.32;2.00;;;;;;;19.54;62.09;99544.03;5052935;28;20024;-75
2021/12/27 19:37:13;;;;;;;4.23;1.93;;;;;;;19.54;62.15;99537.91;5053417;28;20031;-75
2021/12/27 19:39:39;;;;;;;3.60;1.90;;;;;;;19.54;62.24;99530.88;5053585;28;20043;-76
2021/12/27 19:42:04;;;;;;;6.43;1.90;;;;;;;19.53;62.09;99528.38;5053326;28;20465;-76
2021/12/27 19:44:32;;;;;;;2.83;1.73;;;;;;;19.54;61.99;99533.50;5053934;28;20408;-76
2021/12/27 19:46:59;;;;;;;5.95;1.70;;;;;;;19.53;62.15;99531.81;5053514;28;20480;-76
2021/12/27 19:49:28;;;;;;;6.53;1.90;;;;;;;19.53;61.97;99531.81;5052118;28;20553;-77
2021/12/27 19:51:54;;;;;;;4.05;1.88;;;;;;;19.53;61.95;99534.47;5053639;28;20033;-77
2021/12/27 19:54:19;;;;;;;7.17;2.10;;;;;;;19.55;61.83;99539.59;5053602;28;20503;-77
2021/12/27 19:56:48;;;;;;;3.83;2.00;;;;;;;19.56;61.99;99533.38;5052696;28;20154;-77
2021/12/27 19:59:13;;;;;;;7.70;2.13;;;;;;;19.56;61.91;99536.88;5053466;28;20044;-76
2021/12/27 20:01:38;;;;;;;4.27;1.83;;;;;;;19.56;61.73;99534.25;5053301;28;20489;-76
2021/12/27 20:04:09;;;;;;;4.80;2.00;;;;;;;19.57;61.71;99533.28;5052221;28;20025;-75
2021/12/27 20:06:36;;;;;;;5.78;2.10;;;;;;;19.56;61.89;99533.38;5053642;28;20017;-74
2021/12/27 20:09:02;;;;;;;4.22;1.85;;;;;;;19.58;61.88;99534.13;5053150;28;20526;-74
2021/12/27 20:11:27;;;;;;;3.28;1.80;;;;;;;19.58;61.85;99534.13;5052676;28;20063;-75
2021/12/27 20:13:52;;;;;;;2.70;2.00;;;;;;;19.58;61.90;99534.97;5053015;28;20158;-76
2021/12/27 20:16:17;;;;;;;2.90;1.70;;;;;;;19.60;61.85;99529.59;5052664;28;20022;-76
2021/12/27 20:18:43;;;;;;;6.13;1.90;;;;;;;19.59;61.98;99526.09;5051441;28;20784;-74
2021/12/27 20:21:08;;;;;;;2.50;1.73;;;;;;;19.59;61.83;99526.09;5053371;28;20056;-76
2021/12/27 20:23:34;;;;;;;3.40;1.90;;;;;;;19.60;61.62;99519.06;5052533;28;20021;-75
2021/12/27 20:26:00;;;;;;;4.73;1.80;;;;;;;19.61;61.77;99523.38;5052827;28;20534;-77
2021/12/27 20:28:26;;;;;;;3.72;2.00;;;;;;;19.61;61.57;99518.09;5052873;28;20082;-77
2021/12/27 20:30:51;;;;;;;5.20;1.90;;;;;;;19.64;61.58;99530.19;5051854;28;20033;-78
2021/12/27 20:33:17;;;;;;;3.17;1.80;;;;;;;19.64;61.49;99528.41;5052421;28;20017;-84
2021/12/27 20:35:42;;;;;;;6.13;2.10;;;;;;;19.64;61.12;99531.03;5052503;28;20067;-82
2021/12/27 20:38:08;;;;;;;3.97;1.80;;;;;;;19.66;61.43;99530.91;5052340;28;20239;-75
2021/12/27 20:40:35;;;;;;;2.63;1.60;;;;;;;19.65;61.46;99534.50;5053009;28;20068;-75
2021/12/27 20:43:01;;;;;;;3.88;1.80;;;;;;;19.65;61.44;99540.59;5052352;28;20117;-75
